MMML/MXL METAR and TAF weather

Enter ICAO airport designator
Station Type Date Time Source
MMML METAR 2021/05/11 00:41 UTC NOAA

MMML 110041Z 00000KT 10SM SKC 34/M01 A2968


Station Type Date Time Source
MMML Decoded METAR 2021/05/11 00:41 UTC NOAA

Mexicali International Airport , Mexico (MMML) 32-38N 117-00W
May 10, 2021 - 08:41 PM EDT / 2021.05.11 0041 UTC
Wind: Calm:0
Visibility: 10 mile(s):0
Sky conditions: clear
Temperature: 93 F (34 C)
Dew Point: 30 F (-1 C)
Relative Humidity: 10%
Pressure (altimeter): 29.68 in. Hg (1005 hPa)
ob: MMML 110041Z 00000KT 10SM SKC 34/M01 A2968
cycle: 0

Station Type Date Time Source
MMML TAF 2021/05/10 18:57 UTC NOAA

TAF MMML 101655Z 1018/1118 21005KT P6SM SKC
BECMG 1020/1021 26010KT
FM110200 28005KT P6SM SKC
BECMG 1105/1106 12005KT

Example: see airport list